createdAt,value
2017-04-25T00:02:03.517Z,13.27
2017-04-25T00:04:27.998Z,13.17
2017-04-25T00:06:59.121Z,13.13
2017-04-25T00:09:23.585Z,13.13
2017-04-25T00:12:02.238Z,13.13
2017-04-25T00:14:27.727Z,13.19
2017-04-25T00:16:30.528Z,13.06
2017-04-25T00:18:56.149Z,13.01
2017-04-25T00:21:27.089Z,13.05
2017-04-25T00:23:50.435Z,13.02
2017-04-25T00:26:15.387Z,13.03
2017-04-25T00:28:41.341Z,12.93
2017-04-25T00:31:06.055Z,12.76
2017-04-25T00:33:29.547Z,12.73
2017-04-25T00:35:53.192Z,12.68
2017-04-25T00:37:32.180Z,12.68
2017-04-25T00:39:56.819Z,12.51
2017-04-25T00:42:20.430Z,12.48
2017-04-25T00:44:46.194Z,12.37
2017-04-25T00:47:11.026Z,12.55
2017-04-25T00:49:37.257Z,12.55
2017-04-25T00:52:00.749Z,12.51
2017-04-25T00:54:32.661Z,12.43
2017-04-25T00:57:03.202Z,12.25
2017-04-25T01:00:55.842Z,12.53
2017-04-25T01:03:20.790Z,12.53
2017-04-25T01:05:45.591Z,12.4
2017-04-25T01:08:09.385Z,12.26
2017-04-25T01:10:20.397Z,12.23
2017-04-25T01:12:46.495Z,12.4
2017-04-25T01:15:11.964Z,12.35
2017-04-25T01:17:42.658Z,12.51
2017-04-25T01:20:13.071Z,12.43
2017-04-25T01:24:12.883Z,12.25
2017-04-25T01:28:15.059Z,12.62
2017-04-25T01:30:39.857Z,12.53
2017-04-25T01:33:19.107Z,12.55
2017-04-25T01:35:43.614Z,12.68
2017-04-25T01:38:08.018Z,12.57
2017-04-25T01:40:47.897Z,12.57
2017-04-25T01:43:10.881Z,12.66
2017-04-25T01:45:35.964Z,12.58
2017-04-25T01:48:00.248Z,12.66
2017-04-25T01:50:31.596Z,12.72
2017-04-25T01:54:31.772Z,12.4
2017-04-25T01:56:55.490Z,12.44
2017-04-25T01:59:28.244Z,12.55
2017-04-25T02:01:53.288Z,12.51
2017-04-25T02:04:24.436Z,12.44
2017-04-25T02:06:48.242Z,12.43
2017-04-25T02:09:13.673Z,12.4
2017-04-25T02:11:46.613Z,12.3
2017-04-25T02:13:23.322Z,12.45
2017-04-25T02:15:49.331Z,12.21
2017-04-25T02:18:14.112Z,12.45
2017-04-25T02:20:39.651Z,12.44
2017-04-25T02:23:03.097Z,12.54
2017-04-25T02:25:26.754Z,12.63
2017-04-25T02:27:51.446Z,12.54
2017-04-25T02:30:15.286Z,12.36
2017-04-25T02:34:15.180Z,12.18
2017-04-25T02:36:38.716Z,12.3
2017-04-25T02:39:04.555Z,12.39
2017-04-25T02:41:27.941Z,12.4
2017-04-25T02:45:29.001Z,12.23
2017-04-25T02:47:54.258Z,12.25
2017-04-25T02:51:54.028Z,11.93
2017-04-25T02:54:17.683Z,11.93
2017-04-25T02:56:42.455Z,11.96
2017-04-25T02:59:07.288Z,12.14
2017-04-25T03:01:34.209Z,11.97
2017-04-25T03:04:04.747Z,11.95
2017-04-25T03:06:28.794Z,12.21
2017-04-25T03:09:00.996Z,12.1
2017-04-25T03:11:26.711Z,12.2
2017-04-25T03:13:50.430Z,12.12
2017-04-25T03:16:13.935Z,12.1
2017-04-25T03:18:38.772Z,12.25
2017-04-25T03:21:03.070Z,12.4
2017-04-25T03:23:28.673Z,12.47
2017-04-25T03:25:52.762Z,12.51
2017-04-25T03:28:18.464Z,12.36
2017-04-25T03:30:49.063Z,12.3
2017-04-25T03:33:15.856Z,12.3
2017-04-25T03:35:26.656Z,12.45
2017-04-25T03:37:51.631Z,12.21
2017-04-25T03:40:17.288Z,12.26
2017-04-25T03:42:50.503Z,12.25
2017-04-25T03:45:14.166Z,12.25
2017-04-25T03:47:37.877Z,12.23
2017-04-25T03:53:15.903Z,12.23
2017-04-25T03:55:43.050Z,12.12
2017-04-25T03:58:13.723Z,12.02
2017-04-25T04:00:40.371Z,12.1
2017-04-25T04:02:55.842Z,11.77
2017-04-25T04:05:22.403Z,11.76
2017-04-25T04:07:46.115Z,11.77
2017-04-25T04:10:16.592Z,11.91
2017-04-25T04:12:47.575Z,11.65
2017-04-25T04:16:47.972Z,11.85
2017-04-25T04:19:25.716Z,12
2017-04-25T04:21:49.877Z,12.12
2017-04-25T04:24:13.512Z,12.03
2017-04-25T04:26:38.231Z,12.15
2017-04-25T04:29:02.209Z,12.18
2017-04-25T04:31:25.572Z,12.14
2017-04-25T04:33:50.714Z,12.29
2017-04-25T04:36:13.535Z,12.08
2017-04-25T04:38:43.840Z,12.08
2017-04-25T04:41:14.983Z,12.15
2017-04-25T04:46:14.920Z,12.87
2017-04-25T04:48:42.501Z,13.03
2017-04-25T04:51:07.166Z,13.46
2017-04-25T04:53:31.037Z,13.64
2017-04-25T04:55:54.479Z,14.73
2017-04-25T04:58:19.643Z,14.77
2017-04-25T05:00:51.831Z,14.44
2017-04-25T05:03:22.339Z,14.87
2017-04-25T05:07:24.175Z,14.93
2017-04-25T05:09:49.056Z,14.4
2017-04-25T05:12:17.033Z,14.23
2017-04-25T05:14:43.444Z,14.11
2017-04-25T05:17:08.101Z,14.18
2017-04-25T05:19:31.778Z,13.68
2017-04-25T05:21:56.840Z,13.85
2017-04-25T05:24:21.486Z,13.87
2017-04-25T05:26:45.088Z,13.67
2017-04-25T05:29:08.534Z,13.75
2017-04-25T05:31:34.507Z,13.7
2017-04-25T05:33:58.182Z,13.8
2017-04-25T05:36:23.497Z,13.64
2017-04-25T05:38:47.709Z,13.65
2017-04-25T05:41:11.548Z,13.7
2017-04-25T05:43:35.603Z,13.79
2017-04-25T05:45:51.167Z,13.68
2017-04-25T05:48:17.389Z,13.5
2017-04-25T05:50:49.689Z,13.64
2017-04-25T05:53:13.387Z,13.91
2017-04-25T05:55:38.841Z,13.91
2017-04-25T05:58:02.248Z,13.83
2017-04-25T06:00:26.057Z,13.76
2017-04-25T06:02:51.394Z,13.87
2017-04-25T06:05:22.705Z,14.18
2017-04-25T06:07:46.210Z,14.25
2017-04-25T06:10:10.832Z,14.49
2017-04-25T06:12:34.451Z,14.49
2017-04-25T06:14:59.998Z,14.3
2017-04-25T06:17:24.515Z,14.61
2017-04-25T06:19:48.059Z,14.81
2017-04-25T06:22:11.609Z,15.54
2017-04-25T06:24:42.300Z,16.77
2017-04-25T06:27:20.661Z,17.37
2017-04-25T06:29:44.340Z,20.27
2017-04-25T06:32:09.151Z,22.01
2017-04-25T06:34:33.991Z,22.26
2017-04-25T06:36:58.950Z,23.55
2017-04-25T06:39:23.130Z,24.22
2017-04-25T06:41:47.553Z,24.1
2017-04-25T06:44:18.672Z,24.22
2017-04-25T06:46:43.111Z,24.09
2017-04-25T06:49:05.762Z,23.04
2017-04-25T06:51:31.207Z,23.51
2017-04-25T06:53:56.472Z,22.36
2017-04-25T06:56:21.813Z,22.07
2017-04-25T06:58:52.755Z,21.92
2017-04-25T07:01:18.039Z,22.41
2017-04-25T07:03:44.355Z,22.53
2017-04-25T07:06:10.719Z,22.38
2017-04-25T07:08:49.719Z,22.3
2017-04-25T07:11:21.703Z,22.37
2017-04-25T07:13:47.052Z,21.85
2017-04-25T07:15:57.448Z,19.81
2017-04-25T07:18:21.824Z,19.48
2017-04-25T07:20:48.109Z,19.34
2017-04-25T07:23:06.018Z,19.72
2017-04-25T07:25:30.169Z,19.48
2017-04-25T07:27:56.193Z,19.45
2017-04-25T07:30:06.520Z,19.48
2017-04-25T07:31:42.802Z,19.99
2017-04-25T07:34:14.652Z,19.05
2017-04-25T07:36:39.791Z,19.07
2017-04-25T07:39:03.769Z,19.15
2017-04-25T07:41:34.699Z,20.17
2017-04-25T07:43:58.776Z,21.43
2017-04-25T07:46:24.818Z,21.92
2017-04-25T07:48:48.842Z,21.83
2017-04-25T07:51:13.880Z,20.37
2017-04-25T07:53:45.823Z,20.37
2017-04-25T07:56:11.958Z,20.88
2017-04-25T07:58:37.044Z,21.38
2017-04-25T08:01:02.253Z,21.4
2017-04-25T08:03:35.271Z,20.9
2017-04-25T08:07:35.576Z,21
2017-04-25T08:09:37.392Z,21.29
2017-04-25T08:11:47.819Z,21.81
2017-04-25T08:14:19.582Z,22.49
2017-04-25T08:16:45.844Z,21.58
2017-04-25T08:19:24.674Z,21.72
2017-04-25T08:21:56.761Z,20.37
2017-04-25T08:25:57.216Z,20.39
2017-04-25T08:28:30.122Z,20.52
2017-04-25T08:30:56.219Z,21.08
2017-04-25T08:33:27.085Z,19.81
2017-04-25T08:37:27.443Z,19.87
2017-04-25T08:41:27.790Z,19.9
2017-04-25T08:43:38.173Z,19.9
2017-04-25T08:46:04.259Z,19.44
2017-04-25T08:48:35.006Z,19.11
2017-04-25T08:51:00.063Z,18.81
2017-04-25T08:53:25.037Z,18.91
2017-04-25T08:57:25.180Z,18.68
2017-04-25T09:00:04.962Z,18.52
2017-04-25T09:02:28.821Z,18.53
2017-04-25T09:05:00.454Z,18.11
2017-04-25T09:07:26.388Z,17.59
2017-04-25T09:09:51.577Z,17.47
2017-04-25T09:12:31.052Z,18.63
2017-04-25T09:15:03.535Z,17.71
2017-04-25T09:17:28.383Z,17.16
2017-04-25T09:19:52.268Z,18.19
2017-04-25T09:22:17.182Z,18
2017-04-25T09:24:49.555Z,17.87
2017-04-25T09:27:14.356Z,17.41
2017-04-25T09:29:39.389Z,17.13
2017-04-25T09:32:05.150Z,18.08
2017-04-25T09:34:06.868Z,18.46
2017-04-25T09:36:30.778Z,18.34
2017-04-25T09:38:54.679Z,18.82
2017-04-25T09:41:25.195Z,19.75
2017-04-25T09:43:49.517Z,19.39
2017-04-25T09:46:13.338Z,19.66
2017-04-25T09:48:37.434Z,19.74
2017-04-25T09:51:01.344Z,21.5
2017-04-25T09:53:25.469Z,23.44
2017-04-25T09:55:51.435Z,22.55
2017-04-25T09:58:08.455Z,22.65
2017-04-25T10:00:39.243Z,22.99
2017-04-25T10:03:02.807Z,23.94
2017-04-25T10:07:03.180Z,22.96
2017-04-25T10:09:13.558Z,21.94
2017-04-25T10:11:38.816Z,21.72
2017-04-25T10:15:39.316Z,21.32
2017-04-25T10:18:10.151Z,21.14
2017-04-25T10:22:19.368Z,21.48
2017-04-25T10:24:43.587Z,21.37
2017-04-25T10:27:14.430Z,20.02
2017-04-25T10:29:24.760Z,19.77
2017-04-25T10:31:56.606Z,19.3
2017-04-25T10:34:20.742Z,19.66
2017-04-25T10:36:46.872Z,19.81
2017-04-25T10:39:11.142Z,20
2017-04-25T10:41:12.793Z,20.03
2017-04-25T10:43:14.529Z,19.74
2017-04-25T10:45:31.216Z,19.52
2017-04-25T10:47:56.263Z,18.83
2017-04-25T10:50:22.223Z,18.51
2017-04-25T10:54:22.291Z,17.93
2017-04-25T10:56:47.242Z,17.73
2017-04-25T10:59:25.637Z,17.69
2017-04-25T11:01:49.482Z,17.46
2017-04-25T11:04:14.332Z,17.63
2017-04-25T11:06:55.190Z,17.65
2017-04-25T11:09:25.777Z,18.27
2017-04-25T11:12:05.860Z,18.12
2017-04-25T11:16:05.652Z,17.38
2017-04-25T11:18:30.564Z,16.99
2017-04-25T11:20:54.331Z,16.97
2017-04-25T11:23:26.019Z,17.1
2017-04-25T11:25:56.544Z,16.77
2017-04-25T11:28:20.375Z,16.98
2017-04-25T11:30:51.062Z,16.94
2017-04-25T11:34:51.913Z,16
2017-04-25T11:37:15.760Z,15.75
2017-04-25T11:39:39.877Z,15.9
2017-04-25T11:42:05.624Z,15.43
2017-04-25T11:44:36.247Z,15.25
2017-04-25T11:46:39.995Z,15.54
2017-04-25T11:49:03.693Z,15.26
2017-04-25T11:50:39.910Z,15.25
2017-04-25T11:53:03.631Z,15.26
2017-04-25T11:55:27.299Z,15.47
2017-04-25T11:57:50.945Z,15.75
2017-04-25T12:00:14.653Z,15.6
2017-04-25T12:02:39.350Z,15.76
2017-04-25T12:05:03.889Z,15.6
2017-04-25T12:07:27.484Z,15.45
2017-04-25T12:09:51.158Z,15.43
2017-04-25T12:12:14.738Z,15
2017-04-25T12:14:38.495Z,14.55
2017-04-25T12:17:02.032Z,14.86
2017-04-25T12:19:26.573Z,15.17
2017-04-25T12:21:58.913Z,15.12
2017-04-25T12:24:31.329Z,14.68
2017-04-25T12:26:54.871Z,14.31
2017-04-25T12:29:27.360Z,14.74
2017-04-25T12:31:50.900Z,14.9
2017-04-25T12:33:52.610Z,14.87
2017-04-25T12:36:22.991Z,14.7
2017-04-25T12:38:47.526Z,14.7
2017-04-25T12:41:13.052Z,14.77
2017-04-25T12:43:36.664Z,14.99
2017-04-25T12:46:06.986Z,15.55
2017-04-25T12:47:43.220Z,15.15
2017-04-25T12:50:06.860Z,14.74
2017-04-25T12:52:30.443Z,14.77
2017-04-25T12:54:55.145Z,14.9
2017-04-25T12:57:34.712Z,14.77
2017-04-25T12:59:58.375Z,14
2017-04-25T13:02:36.723Z,14.62
2017-04-25T13:05:00.615Z,15.04
2017-04-25T13:09:00.294Z,15.59
2017-04-25T13:11:31.603Z,15.39
2017-04-25T13:13:57.377Z,15.72
2017-04-25T13:16:20.885Z,16
2017-04-25T13:18:44.505Z,16
2017-04-25T13:21:08.262Z,16.16
2017-04-25T13:23:32.043Z,16.18
2017-04-25T13:25:55.792Z,16.5
2017-04-25T13:28:20.656Z,16.65
2017-04-25T13:31:00.114Z,16.43
2017-04-25T13:33:25.839Z,16.4
2017-04-25T13:36:06.213Z,16.25
2017-04-25T13:38:36.668Z,16.05
2017-04-25T13:41:01.345Z,16.22
2017-04-25T13:43:25.156Z,16.21
2017-04-25T13:45:48.891Z,15.9
2017-04-25T13:48:13.706Z,16.36
2017-04-25T13:50:38.318Z,16.02
2017-04-25T13:53:03.059Z,15.7
2017-04-25T13:55:20.406Z,16.43
2017-04-25T13:57:45.215Z,16.59
2017-04-25T14:00:15.598Z,16.25
2017-04-25T14:02:39.465Z,15.69
2017-04-25T14:05:18.666Z,15.41
2017-04-25T14:07:42.320Z,14.93
2017-04-25T14:10:07.102Z,14.73
2017-04-25T14:12:30.922Z,15.02
2017-04-25T14:15:10.222Z,14.71
2017-04-25T14:17:33.795Z,14.94
2017-04-25T14:19:57.474Z,14.85
2017-04-25T14:22:27.632Z,15.08
2017-04-25T14:24:58.111Z,14.41
2017-04-25T14:27:23.762Z,14.61
2017-04-25T14:29:55.131Z,14.81
2017-04-25T14:32:20.827Z,14.77
2017-04-25T14:34:44.652Z,14.99
2017-04-25T14:37:09.224Z,14.68
2017-04-25T14:39:39.677Z,14.79
2017-04-25T14:42:03.293Z,14.71
2017-04-25T14:44:33.617Z,14.78
2017-04-25T14:48:33.466Z,14.56
2017-04-25T14:50:59.092Z,14.23
2017-04-25T14:53:22.770Z,14.44
2017-04-25T14:55:48.349Z,14.36
2017-04-25T14:58:11.885Z,13.64
2017-04-25T15:00:49.971Z,14.19
2017-04-25T15:03:13.403Z,13.94
2017-04-25T15:05:43.442Z,14.34
2017-04-25T15:08:06.899Z,13.98
2017-04-25T15:10:30.386Z,13.73
2017-04-25T15:12:53.922Z,13.75
2017-04-25T15:15:19.554Z,13.83
2017-04-25T15:17:49.890Z,13.47
2017-04-25T15:20:13.351Z,13.4
2017-04-25T15:22:38.981Z,13.37
2017-04-25T15:25:03.470Z,13.47
2017-04-25T15:27:27.966Z,13.4
2017-04-25T15:29:51.501Z,13.76
2017-04-25T15:32:06.538Z,13.89
2017-04-25T15:34:29.876Z,13.75
2017-04-25T15:36:53.459Z,13.5
2017-04-25T15:39:16.934Z,13.7
2017-04-25T15:41:41.429Z,13.58
2017-04-25T15:44:05.043Z,13.73
2017-04-25T15:46:35.416Z,13.2
2017-04-25T15:48:58.934Z,13.47
2017-04-25T15:51:22.540Z,13.79
2017-04-25T15:53:46.118Z,13.94
2017-04-25T15:56:11.607Z,13.49
2017-04-25T15:58:26.566Z,13.45
2017-04-25T16:00:50.072Z,13.45
2017-04-25T16:02:26.311Z,13.52
2017-04-25T16:04:49.895Z,13.68
2017-04-25T16:07:13.504Z,13.82
2017-04-25T16:09:36.965Z,14.11
2017-04-25T16:12:00.445Z,13.79
2017-04-25T16:14:23.872Z,14.05
2017-04-25T16:16:47.499Z,14.11
2017-04-25T16:19:11.994Z,14
2017-04-25T16:21:35.392Z,13.65
2017-04-25T16:23:58.905Z,13.54
2017-04-25T16:26:29.275Z,13.71
2017-04-25T16:28:52.724Z,13.68
2017-04-25T16:31:17.091Z,13.68
2017-04-25T16:33:40.602Z,13.61
2017-04-25T16:36:04.011Z,13.7
2017-04-25T16:38:28.436Z,13.91
2017-04-25T16:40:52.011Z,13.76
2017-04-25T16:43:15.643Z,13.55
2017-04-25T16:45:40.052Z,13.3
2017-04-25T16:48:03.444Z,13.16
2017-04-25T16:50:28.011Z,12.94
2017-04-25T16:52:52.415Z,13.03
2017-04-25T16:55:16.780Z,13.39
2017-04-25T16:57:40.213Z,13.16
2017-04-25T17:00:10.267Z,13.16
2017-04-25T17:02:33.812Z,13.19
2017-04-25T17:04:57.522Z,13.03
2017-04-25T17:07:20.957Z,12.78
2017-04-25T17:09:44.337Z,12.72
2017-04-25T17:12:07.806Z,12.62
2017-04-25T17:14:33.227Z,12.86
2017-04-25T17:16:56.809Z,12.61
2017-04-25T17:18:34.602Z,12.78
2017-04-25T17:21:00.890Z,12.76
2017-04-25T17:23:25.273Z,12.7
2017-04-25T17:25:48.747Z,12.53
2017-04-25T17:28:13.099Z,12.28
2017-04-25T17:30:36.540Z,12.53
2017-04-25T17:32:59.943Z,12.53
2017-04-25T17:35:25.342Z,12.58
2017-04-25T17:37:49.722Z,12.58
2017-04-25T17:40:13.154Z,12.68
2017-04-25T17:42:38.464Z,12.36
2017-04-25T17:45:01.868Z,12.61
2017-04-25T17:47:26.994Z,12.12
2017-04-25T17:49:51.298Z,11.81
2017-04-25T17:52:14.765Z,11.97
2017-04-25T17:54:38.123Z,12.12
2017-04-25T17:57:01.524Z,11.83
2017-04-25T17:59:16.538Z,11.85
2017-04-25T18:01:31.489Z,11.78
2017-04-25T18:03:54.779Z,11.77
2017-04-25T18:06:18.127Z,11.78
2017-04-25T18:08:41.516Z,11.76
2017-04-25T18:11:05.971Z,11.88
2017-04-25T18:13:29.352Z,11.91
2017-04-25T18:17:28.809Z,11.91
2017-04-25T18:19:53.358Z,12
2017-04-25T18:22:16.683Z,11.96
2017-04-25T18:24:46.665Z,11.63
2017-04-25T18:27:11.079Z,11.45
2017-04-25T18:29:14.276Z,11.34
2017-04-25T18:31:38.654Z,11.35
2017-04-25T18:34:02.099Z,11.37
2017-04-25T18:36:25.492Z,11.35
2017-04-25T18:38:48.843Z,11.13
2017-04-25T18:41:12.213Z,11.34
2017-04-25T18:43:35.573Z,11.38
2017-04-25T18:45:58.974Z,11.38
2017-04-25T18:48:22.314Z,11.35
2017-04-25T18:50:45.750Z,11.37
2017-04-25T18:53:09.055Z,11.34
2017-04-25T18:55:32.534Z,10.92
2017-04-25T18:57:56.031Z,10.68
2017-04-25T19:00:19.364Z,10.43
2017-04-25T19:02:42.673Z,10.48
2017-04-25T19:05:05.915Z,10.84
2017-04-25T19:07:15.517Z,11.13
2017-04-25T19:09:38.818Z,11.08
2017-04-25T19:12:02.128Z,10.86
2017-04-25T19:14:25.486Z,11.26
2017-04-25T19:16:48.835Z,11.13
2017-04-25T19:19:12.184Z,11.2
2017-04-25T19:21:35.431Z,11.34
2017-04-25T19:23:58.823Z,11.34
2017-04-25T19:26:22.141Z,11.35
2017-04-25T19:30:21.955Z,11.27
2017-04-25T19:32:36.968Z,11.27
2017-04-25T19:35:00.232Z,11.04
2017-04-25T19:37:23.498Z,11.01
2017-04-25T19:39:46.848Z,11.1
2017-04-25T19:42:10.127Z,10.84
2017-04-25T19:44:33.280Z,11.22
2017-04-25T19:50:09.078Z,11.59
2017-04-25T19:52:32.377Z,11.8
2017-04-25T19:55:09.173Z,11.74
2017-04-25T19:57:32.467Z,11.44
2017-04-25T19:59:58.600Z,11.35
2017-04-25T20:02:21.909Z,11.48
2017-04-25T20:06:26.400Z,11.37
2017-04-25T20:12:43.885Z,11.31
2017-04-25T20:15:09.888Z,11.34
2017-04-25T20:17:33.879Z,11.52
2017-04-25T20:19:57.235Z,11.7
2017-04-25T20:22:20.484Z,11.73
2017-04-25T20:24:43.910Z,11.74
2017-04-25T20:27:46.611Z,11.68
2017-04-25T20:30:17.618Z,11.58
2017-04-25T20:32:55.658Z,11.41
2017-04-25T20:36:54.555Z,11.59
2017-04-25T20:39:35.408Z,11.65
2017-04-25T20:41:50.479Z,11.33
2017-04-25T20:47:16.488Z,11.19
2017-04-25T20:49:34.399Z,11.33
2017-04-25T20:51:57.787Z,11.56
2017-04-25T20:59:01.843Z,11.22
2017-04-25T21:04:03.294Z,11.23
2017-04-25T21:06:27.560Z,10.98
2017-04-25T21:08:51.671Z,11.18
2017-04-25T21:11:14.961Z,10.79
2017-04-25T21:13:31.423Z,10.68
2017-04-25T21:15:55.797Z,10.64
2017-04-25T21:18:10.770Z,11.04
2017-04-25T21:20:34.185Z,11.1
2017-04-25T21:22:57.418Z,11.05
2017-04-25T21:24:33.128Z,11.33
2017-04-25T21:26:48.096Z,11.37
2017-04-25T21:29:11.605Z,11.63
2017-04-25T21:31:34.936Z,11.53
2017-04-25T21:34:13.617Z,11.44
2017-04-25T21:36:36.985Z,11.55
2017-04-25T21:39:00.264Z,11.4
2017-04-25T21:41:39.175Z,11.25
2017-04-25T21:44:02.405Z,11.16
2017-04-25T21:46:25.702Z,11.19
2017-04-25T21:48:49.035Z,11.15
2017-04-25T21:51:12.302Z,11.16
2017-04-25T21:53:38.134Z,11.1
2017-04-25T21:56:02.411Z,11.01
2017-04-25T21:58:25.665Z,10.83
2017-04-25T22:00:49.038Z,10.76
2017-04-25T22:03:12.414Z,11.02
2017-04-25T22:05:35.864Z,10.95
2017-04-25T22:07:12.012Z,10.86
2017-04-25T22:09:36.282Z,10.92
2017-04-25T22:11:59.661Z,10.94
2017-04-25T22:14:30.397Z,10.49
2017-04-25T22:17:09.589Z,10.64
2017-04-25T22:19:48.567Z,10.65
2017-04-25T22:22:27.621Z,10.72
2017-04-25T22:24:37.996Z,10.28
2017-04-25T22:27:02.343Z,10.12
2017-04-25T22:29:25.703Z,10.27
2017-04-25T22:31:49.093Z,10.42
2017-04-25T22:33:25.314Z,10.45
2017-04-25T22:35:57.292Z,10.06
2017-04-25T22:38:37.308Z,9.87
2017-04-25T22:41:07.346Z,9.91
2017-04-25T22:43:38.465Z,9.72
2017-04-25T22:45:54.555Z,9.85
2017-04-25T22:49:53.793Z,9.55
2017-04-25T22:52:17.301Z,9.19
2017-04-25T22:54:41.632Z,9.29
2017-04-25T22:57:05.775Z,9.85
2017-04-25T22:59:29.063Z,9.9
2017-04-25T23:02:01.246Z,10.03
2017-04-25T23:04:24.512Z,9.67
2017-04-25T23:06:47.843Z,9.92
2017-04-25T23:09:11.167Z,10.05
2017-04-25T23:11:41.221Z,9.97
2017-04-25T23:14:05.619Z,9.9
2017-04-25T23:16:36.754Z,9.7
2017-04-25T23:19:01.057Z,10.2
2017-04-25T23:21:02.676Z,9.99
2017-04-25T23:22:38.879Z,9.97
2017-04-25T23:25:03.263Z,10.18
2017-04-25T23:27:27.680Z,10.36
2017-04-25T23:29:58.428Z,10.48
2017-04-25T23:32:22.763Z,10.53
2017-04-25T23:34:47.056Z,10.58
2017-04-25T23:37:11.461Z,10.53
2017-04-25T23:39:42.491Z,10.71
2017-04-25T23:42:06.662Z,11
2017-04-25T23:44:30.960Z,11.02
2017-04-25T23:46:55.370Z,11.05
2017-04-25T23:49:18.724Z,11.05
2017-04-25T23:51:42.187Z,10.89
2017-04-25T23:54:05.344Z,11.23
2017-04-25T23:56:28.595Z,10.79
2017-04-25T23:58:53.017Z,11.07
